createdAt,value
2022-11-29T00:01:26.470Z,6.50
2022-11-29T00:03:53.775Z,6.60
2022-11-29T00:06:21.969Z,6.60
2022-11-29T00:08:48.947Z,6.60
2022-11-29T00:11:35.696Z,6.50
2022-11-29T00:14:02.569Z,6.60
2022-11-29T00:16:29.551Z,6.60
2022-11-29T00:18:56.462Z,6.50
2022-11-29T00:21:23.261Z,6.50
2022-11-29T00:23:50.215Z,6.50
2022-11-29T00:26:17.103Z,6.50
2022-11-29T00:28:43.960Z,6.50
2022-11-29T00:31:21.524Z,6.50
2022-11-29T00:33:48.833Z,6.50
2022-11-29T00:36:15.806Z,6.60
2022-11-29T00:38:43.078Z,6.60
2022-11-29T00:41:10.116Z,6.60
2022-11-29T00:43:37.142Z,6.60
2022-11-29T00:46:04.268Z,6.60
2022-11-29T00:48:31.755Z,6.50
2022-11-29T00:50:58.658Z,6.50
2022-11-29T00:53:25.526Z,6.50
2022-11-29T00:55:52.502Z,6.60
2022-11-29T00:58:20.293Z,6.80
2022-11-29T01:00:47.866Z,6.70
2022-11-29T01:03:15.629Z,6.60
2022-11-29T01:05:43.022Z,6.60
2022-11-29T01:08:10.337Z,6.70
2022-11-29T01:10:37.270Z,6.60
2022-11-29T01:13:04.463Z,6.70
2022-11-29T01:15:31.742Z,6.80
2022-11-29T01:17:58.577Z,6.80
2022-11-29T01:20:25.940Z,6.70
2022-11-29T01:22:52.984Z,6.70
2022-11-29T01:25:19.894Z,6.70
2022-11-29T01:27:47.088Z,6.60
2022-11-29T01:30:14.325Z,6.60
2022-11-29T01:32:41.153Z,6.60
2022-11-29T01:35:08.211Z,6.60
2022-11-29T01:37:35.217Z,6.60
2022-11-29T01:40:02.061Z,6.60
2022-11-29T01:42:28.948Z,6.60
2022-11-29T01:45:00.171Z,6.60
2022-11-29T01:47:27.166Z,6.60
2022-11-29T01:49:54.138Z,6.60
2022-11-29T01:52:22.573Z,6.60
2022-11-29T01:54:50.457Z,6.60
2022-11-29T01:57:18.375Z,6.60
2022-11-29T01:59:48.042Z,6.60
2022-11-29T02:02:16.247Z,6.60
2022-11-29T02:04:44.853Z,6.60
2022-11-29T02:07:11.965Z,6.70
2022-11-29T02:09:38.986Z,6.70
2022-11-29T02:12:32.054Z,6.70
2022-11-29T02:15:14.188Z,6.70
2022-11-29T02:17:53.760Z,6.60
2022-11-29T02:20:20.576Z,6.70
2022-11-29T02:22:53.367Z,6.60
2022-11-29T02:25:23.416Z,6.70
2022-11-29T02:27:50.199Z,6.70
2022-11-29T02:30:16.945Z,6.70
2022-11-29T02:32:46.545Z,6.60
2022-11-29T02:35:16.255Z,6.70
2022-11-29T02:37:43.095Z,6.60
2022-11-29T02:40:28.457Z,6.80
2022-11-29T02:43:14.053Z,6.70
2022-11-29T02:45:48.885Z,6.70
2022-11-29T02:48:29.168Z,6.60
2022-11-29T02:51:18.741Z,6.60
2022-11-29T02:53:53.652Z,6.70
2022-11-29T02:56:27.453Z,6.60
2022-11-29T02:59:01.203Z,6.60
2022-11-29T03:01:42.488Z,6.70
2022-11-29T03:04:23.645Z,6.70
2022-11-29T03:06:55.502Z,6.70
2022-11-29T03:09:43.624Z,6.70
2022-11-29T03:12:16.636Z,6.70
2022-11-29T03:14:46.863Z,6.70
2022-11-29T03:17:20.593Z,6.70
2022-11-29T03:19:47.430Z,6.70
2022-11-29T03:22:22.998Z,6.60
2022-11-29T03:24:49.782Z,6.60
2022-11-29T03:27:21.676Z,6.60
2022-11-29T03:29:56.211Z,6.70
2022-11-29T03:32:27.614Z,6.70
2022-11-29T03:35:14.782Z,6.70
2022-11-29T03:37:52.633Z,6.70
2022-11-29T03:40:21.522Z,6.70
2022-11-29T03:42:53.171Z,6.70
2022-11-29T03:45:25.471Z,6.70
2022-11-29T03:48:02.249Z,6.70
2022-11-29T03:50:34.665Z,6.70
2022-11-29T03:53:20.335Z,6.70
2022-11-29T03:56:07.425Z,6.70
2022-11-29T03:58:37.449Z,6.70
2022-11-29T04:01:22.769Z,6.70
2022-11-29T04:03:57.425Z,6.70
2022-11-29T04:07:07.608Z,6.70
2022-11-29T04:09:58.007Z,6.70
2022-11-29T04:12:55.654Z,6.70
2022-11-29T04:15:46.121Z,6.70
2022-11-29T04:18:16.174Z,6.70
2022-11-29T04:21:10.535Z,6.60
2022-11-29T04:23:42.301Z,6.70
2022-11-29T04:26:35.345Z,6.70
2022-11-29T04:29:05.079Z,6.70
2022-11-29T04:31:33.959Z,6.70
2022-11-29T04:34:20.752Z,6.80
2022-11-29T04:36:55.714Z,6.70
2022-11-29T04:39:43.662Z,6.70
2022-11-29T04:42:19.106Z,6.60
2022-11-29T04:44:46.205Z,6.70
2022-11-29T04:47:16.241Z,6.60
2022-11-29T04:49:55.084Z,6.60
2022-11-29T04:52:27.822Z,6.70
2022-11-29T04:54:54.709Z,6.70
2022-11-29T04:57:32.699Z,6.70
2022-11-29T04:59:59.496Z,6.60
2022-11-29T05:02:41.217Z,6.70
2022-11-29T05:05:08.159Z,6.70
2022-11-29T05:07:39.577Z,6.70
2022-11-29T05:10:26.862Z,6.60
2022-11-29T05:12:59.637Z,6.60
2022-11-29T05:15:39.486Z,6.60
2022-11-29T05:18:18.843Z,6.70
2022-11-29T05:20:51.637Z,6.60
2022-11-29T05:23:26.873Z,6.60
2022-11-29T05:25:59.875Z,6.60
2022-11-29T05:28:33.528Z,6.60
2022-11-29T05:31:18.971Z,6.60
2022-11-29T05:34:15.098Z,6.60
2022-11-29T05:37:00.867Z,6.70
2022-11-29T05:39:27.702Z,6.30
2022-11-29T05:42:27.039Z,6.60
2022-11-29T05:44:57.033Z,6.50
2022-11-29T05:47:31.200Z,6.50
2022-11-29T05:50:33.840Z,6.50
2022-11-29T05:53:06.914Z,6.50
2022-11-29T05:55:51.833Z,6.60
2022-11-29T05:58:39.169Z,6.60
2022-11-29T06:01:25.004Z,6.60
2022-11-29T06:04:14.586Z,6.60
2022-11-29T06:06:45.165Z,6.60
2022-11-29T06:09:15.202Z,6.60
2022-11-29T06:11:44.644Z,6.60
2022-11-29T06:14:14.611Z,6.50
2022-11-29T06:16:53.668Z,6.60
2022-11-29T06:19:38.908Z,6.60
2022-11-29T06:22:11.898Z,6.60
2022-11-29T06:25:05.010Z,6.50
2022-11-29T06:27:51.021Z,6.60
2022-11-29T06:30:20.797Z,6.50
2022-11-29T06:33:20.387Z,6.60
2022-11-29T06:36:05.819Z,6.60
2022-11-29T06:38:33.010Z,6.60
2022-11-29T06:41:02.121Z,6.60
2022-11-29T06:43:29.812Z,6.60
2022-11-29T06:46:03.000Z,6.60
2022-11-29T06:48:33.081Z,6.60
2022-11-29T06:51:03.159Z,6.60
2022-11-29T06:53:30.025Z,6.60
2022-11-29T06:55:56.847Z,6.70
2022-11-29T06:58:36.058Z,6.60
2022-11-29T07:01:06.209Z,6.80
2022-11-29T07:03:39.756Z,6.70
2022-11-29T07:06:23.838Z,6.60
2022-11-29T07:08:53.211Z,6.50
2022-11-29T07:11:20.262Z,6.50
2022-11-29T07:13:47.359Z,6.50
2022-11-29T07:16:22.010Z,6.60
2022-11-29T07:18:54.736Z,6.60
2022-11-29T07:21:29.032Z,6.60
2022-11-29T07:24:08.127Z,6.60
2022-11-29T07:26:37.763Z,6.70
2022-11-29T07:29:13.668Z,6.80
2022-11-29T07:31:58.817Z,6.80
2022-11-29T07:34:25.697Z,6.80
2022-11-29T07:37:15.827Z,6.80
2022-11-29T07:40:08.986Z,6.90
2022-11-29T07:42:42.090Z,6.80
2022-11-29T07:45:17.843Z,6.20
2022-11-29T07:47:44.861Z,6.80
2022-11-29T07:50:12.252Z,6.90
2022-11-29T07:52:39.072Z,6.90
2022-11-29T07:55:06.246Z,6.90
2022-11-29T07:57:33.094Z,6.90
2022-11-29T07:59:59.995Z,6.90
2022-11-29T08:02:30.517Z,6.90
2022-11-29T08:04:57.509Z,7.00
2022-11-29T08:07:24.407Z,7.10
2022-11-29T08:09:51.286Z,7.10
2022-11-29T08:12:18.334Z,7.20
2022-11-29T08:14:45.485Z,7.20
2022-11-29T08:17:12.566Z,7.20
2022-11-29T08:19:39.490Z,7.20
2022-11-29T08:22:06.378Z,7.20
2022-11-29T08:24:33.312Z,7.20
2022-11-29T08:27:00.267Z,7.20
2022-11-29T08:29:27.325Z,7.20
2022-11-29T08:31:54.330Z,7.30
2022-11-29T08:34:21.910Z,7.40
2022-11-29T08:36:49.191Z,7.30
2022-11-29T08:39:16.362Z,7.40
2022-11-29T08:41:43.244Z,7.50
2022-11-29T08:44:10.193Z,7.50
2022-11-29T08:46:55.775Z,7.40
2022-11-29T08:49:22.691Z,7.50
2022-11-29T08:51:51.220Z,7.70
2022-11-29T08:54:18.405Z,7.60
2022-11-29T08:57:37.300Z,7.80
2022-11-29T08:59:32.185Z,7.90
2022-11-29T09:01:59.030Z,7.90
2022-11-29T09:04:25.923Z,8.00
2022-11-29T09:06:52.757Z,7.90
2022-11-29T09:09:19.654Z,7.90
2022-11-29T09:11:49.431Z,8.10
2022-11-29T09:14:16.839Z,8.10
2022-11-29T09:16:43.747Z,8.00
2022-11-29T09:19:13.182Z,8.00
2022-11-29T09:21:40.319Z,8.20
2022-11-29T09:24:08.151Z,8.40
2022-11-29T09:26:36.231Z,8.40
2022-11-29T09:29:04.090Z,8.20
2022-11-29T09:31:31.591Z,8.30
2022-11-29T09:33:58.956Z,8.30
2022-11-29T09:36:28.801Z,8.40
2022-11-29T09:38:56.824Z,8.50
2022-11-29T09:41:26.610Z,8.60
2022-11-29T09:44:13.820Z,8.60
2022-11-29T09:46:46.602Z,8.20
2022-11-29T09:49:25.599Z,8.30
2022-11-29T09:51:52.488Z,8.50
2022-11-29T09:54:19.316Z,8.30
2022-11-29T09:56:50.654Z,8.20
2022-11-29T09:59:22.841Z,8.20
2022-11-29T10:02:17.000Z,8.40
2022-11-29T10:04:50.394Z,8.40
2022-11-29T10:07:21.550Z,8.30
2022-11-29T10:09:58.321Z,8.50
2022-11-29T10:12:44.033Z,8.60
2022-11-29T10:15:31.543Z,8.80
2022-11-29T10:18:18.611Z,8.80
2022-11-29T10:20:49.362Z,8.80
2022-11-29T10:23:16.427Z,8.80
2022-11-29T10:25:47.783Z,9.00
2022-11-29T10:28:16.060Z,8.90
2022-11-29T10:30:43.840Z,8.90
2022-11-29T10:33:21.438Z,9.00
2022-11-29T10:35:50.426Z,9.10
2022-11-29T10:38:32.676Z,8.90
2022-11-29T10:41:11.045Z,8.80
2022-11-29T10:43:38.252Z,8.50
2022-11-29T10:46:05.981Z,8.50
2022-11-29T10:48:34.101Z,8.60
2022-11-29T10:51:01.351Z,8.60
2022-11-29T10:53:31.163Z,8.60
2022-11-29T10:56:01.063Z,8.70
2022-11-29T10:58:31.144Z,8.70
2022-11-29T11:00:58.132Z,8.70
2022-11-29T11:03:40.431Z,8.80
2022-11-29T11:06:13.534Z,8.80
2022-11-29T11:08:42.592Z,8.70
2022-11-29T11:11:09.554Z,8.80
2022-11-29T11:13:37.145Z,8.70
2022-11-29T11:16:09.462Z,8.70
2022-11-29T11:18:36.980Z,8.80
2022-11-29T11:21:04.057Z,8.50
2022-11-29T11:23:32.042Z,8.50
2022-11-29T11:26:09.247Z,8.60
2022-11-29T11:28:40.014Z,8.50
2022-11-29T11:31:08.549Z,8.60
2022-11-29T11:33:39.478Z,8.50
2022-11-29T11:36:21.509Z,8.50
2022-11-29T11:38:48.378Z,8.40
2022-11-29T11:41:20.256Z,8.40
2022-11-29T11:43:51.810Z,8.50
2022-11-29T11:46:18.720Z,8.60
2022-11-29T11:48:46.762Z,8.80
2022-11-29T11:51:25.482Z,8.90
2022-11-29T11:53:54.874Z,9.00
2022-11-29T11:56:22.706Z,8.90
2022-11-29T11:58:51.897Z,8.70
2022-11-29T12:01:21.822Z,8.50
2022-11-29T12:03:54.833Z,8.60
2022-11-29T12:06:21.660Z,8.80
2022-11-29T12:08:49.123Z,8.80
2022-11-29T12:11:17.305Z,9.00
2022-11-29T12:13:47.818Z,9.00
2022-11-29T12:16:18.512Z,9.00
2022-11-29T12:18:50.072Z,9.10
2022-11-29T12:21:21.631Z,9.20
2022-11-29T12:24:16.390Z,9.10
2022-11-29T12:26:59.363Z,9.20
2022-11-29T12:29:28.617Z,9.10
2022-11-29T12:32:19.533Z,9.10
2022-11-29T12:35:00.697Z,8.90
2022-11-29T12:37:27.769Z,8.90
2022-11-29T12:40:03.442Z,8.90
2022-11-29T12:42:39.633Z,8.70
2022-11-29T12:45:21.624Z,8.70
2022-11-29T12:47:52.210Z,8.70
2022-11-29T12:50:22.414Z,8.80
2022-11-29T12:53:07.896Z,8.70
2022-11-29T12:55:53.369Z,8.70
2022-11-29T12:58:40.055Z,8.60
2022-11-29T13:01:22.252Z,8.50
2022-11-29T13:03:58.861Z,8.40
2022-11-29T13:06:31.582Z,8.30
2022-11-29T13:08:58.440Z,8.30
2022-11-29T13:11:27.591Z,8.20
2022-11-29T13:14:41.666Z,8.30
2022-11-29T13:17:04.939Z,8.40
2022-11-29T13:19:40.318Z,8.30
2022-11-29T13:22:18.604Z,8.30
2022-11-29T13:24:48.696Z,8.40
2022-11-29T13:27:32.049Z,8.30
2022-11-29T13:30:00.470Z,8.30
2022-11-29T13:32:27.289Z,8.20
2022-11-29T13:34:55.952Z,8.20
2022-11-29T13:37:28.698Z,8.30
2022-11-29T13:40:01.145Z,8.20
2022-11-29T13:42:46.762Z,8.30
2022-11-29T13:45:30.503Z,8.30
2022-11-29T13:48:00.526Z,8.50
2022-11-29T13:50:36.496Z,8.50
2022-11-29T13:53:04.745Z,8.30
2022-11-29T13:55:31.804Z,8.40
2022-11-29T13:58:22.237Z,8.60
2022-11-29T14:00:50.887Z,8.50
2022-11-29T14:03:21.013Z,8.50
2022-11-29T14:05:51.778Z,8.60
2022-11-29T14:08:34.100Z,8.70
2022-11-29T14:11:14.750Z,8.60
2022-11-29T14:13:41.585Z,8.50
2022-11-29T14:16:17.915Z,8.50
2022-11-29T14:18:44.810Z,8.40
2022-11-29T14:21:11.859Z,8.30
2022-11-29T14:23:40.644Z,8.30
2022-11-29T14:26:07.433Z,8.40
2022-11-29T14:28:34.246Z,8.30
2022-11-29T14:31:02.087Z,8.20
2022-11-29T14:33:32.101Z,8.20
2022-11-29T14:36:18.818Z,8.20
2022-11-29T14:38:45.721Z,8.10
2022-11-29T14:41:21.753Z,8.10
2022-11-29T14:43:48.869Z,8.00
2022-11-29T14:46:15.734Z,8.00
2022-11-29T14:48:46.809Z,8.00
2022-11-29T14:51:13.754Z,7.90
2022-11-29T14:53:41.402Z,7.90
2022-11-29T14:56:26.926Z,7.80
2022-11-29T14:59:12.439Z,7.90
2022-11-29T15:01:43.859Z,7.80
2022-11-29T15:04:11.497Z,7.80
2022-11-29T15:06:45.119Z,7.80
2022-11-29T15:09:19.660Z,7.60
2022-11-29T15:11:51.651Z,7.60
2022-11-29T15:14:30.707Z,7.60
2022-11-29T15:16:57.553Z,7.60
2022-11-29T15:19:24.334Z,7.60
2022-11-29T15:22:03.786Z,7.60
2022-11-29T15:24:30.684Z,7.60
2022-11-29T15:27:02.160Z,7.60
2022-11-29T15:29:30.190Z,7.60
2022-11-29T15:32:01.831Z,7.60
2022-11-29T15:34:32.320Z,7.60
2022-11-29T15:36:59.941Z,7.80
2022-11-29T15:39:28.470Z,7.80
2022-11-29T15:42:09.902Z,7.90
2022-11-29T15:44:37.031Z,7.80
2022-11-29T15:47:23.841Z,7.70
2022-11-29T15:49:51.316Z,7.70
2022-11-29T15:52:28.399Z,7.80
2022-11-29T15:55:03.637Z,7.70
2022-11-29T15:57:38.382Z,7.70
2022-11-29T16:00:06.755Z,7.60
2022-11-29T16:02:35.121Z,7.60
2022-11-29T16:05:24.939Z,7.70
2022-11-29T16:07:53.584Z,7.60
2022-11-29T16:10:31.852Z,7.60
2022-11-29T16:13:06.097Z,7.50
2022-11-29T16:15:37.261Z,7.50
2022-11-29T16:18:14.806Z,7.50
2022-11-29T16:20:41.717Z,7.50
2022-11-29T16:23:11.365Z,7.50
2022-11-29T16:25:52.510Z,7.50
2022-11-29T16:28:19.539Z,7.60
2022-11-29T16:30:46.314Z,7.50
2022-11-29T16:33:19.121Z,7.50
2022-11-29T16:35:46.033Z,7.50
2022-11-29T16:38:17.977Z,7.50
2022-11-29T16:40:59.853Z,7.40
2022-11-29T16:43:47.418Z,7.40
2022-11-29T16:46:20.409Z,7.40
2022-11-29T16:48:48.541Z,7.50
2022-11-29T16:51:18.190Z,7.50
2022-11-29T16:53:48.359Z,7.50
2022-11-29T16:56:16.848Z,7.50
2022-11-29T16:59:25.064Z,7.60
2022-11-29T17:01:32.253Z,7.60
2022-11-29T17:04:00.102Z,7.50
2022-11-29T17:06:27.862Z,7.50
2022-11-29T17:08:55.993Z,7.60
2022-11-29T17:11:22.889Z,7.50
2022-11-29T17:13:50.356Z,7.50
2022-11-29T17:16:21.501Z,7.50
2022-11-29T17:18:48.893Z,7.50
2022-11-29T17:21:19.148Z,7.50
2022-11-29T17:23:46.448Z,7.40
2022-11-29T17:26:15.434Z,7.50
2022-11-29T17:28:43.338Z,7.40
2022-11-29T17:31:11.498Z,7.20
2022-11-29T17:33:38.334Z,7.20
2022-11-29T17:36:06.360Z,7.20
2022-11-29T17:38:33.295Z,7.20
2022-11-29T17:41:00.077Z,7.30
2022-11-29T17:43:26.942Z,7.20
2022-11-29T17:45:53.772Z,7.30
2022-11-29T17:48:20.646Z,7.30
2022-11-29T17:50:47.475Z,7.20
2022-11-29T17:53:14.313Z,7.30
2022-11-29T17:55:41.292Z,7.30
2022-11-29T17:58:08.145Z,7.20
2022-11-29T18:00:35.066Z,7.20
2022-11-29T18:03:02.666Z,7.20
2022-11-29T18:05:34.549Z,7.10
2022-11-29T18:08:01.842Z,7.20
2022-11-29T18:10:28.857Z,7.20
2022-11-29T18:12:56.270Z,7.20
2022-11-29T18:15:23.850Z,7.10
2022-11-29T18:17:50.678Z,7.10
2022-11-29T18:20:17.546Z,7.10
2022-11-29T18:22:44.395Z,7.00
2022-11-29T18:25:37.608Z,7.00
2022-11-29T18:27:58.229Z,7.00
2022-11-29T18:30:25.052Z,7.00
2022-11-29T18:32:51.904Z,6.90
2022-11-29T18:35:18.942Z,6.90
2022-11-29T18:38:13.931Z,7.00
2022-11-29T18:40:32.899Z,7.10
2022-11-29T18:42:59.760Z,7.20
2022-11-29T18:45:26.769Z,7.10
2022-11-29T18:47:53.578Z,7.00
2022-11-29T18:50:20.799Z,6.90
2022-11-29T18:52:47.674Z,6.80
2022-11-29T18:55:14.566Z,6.80
2022-11-29T18:57:41.345Z,6.70
2022-11-29T19:00:08.478Z,6.70
2022-11-29T19:02:37.140Z,6.60
2022-11-29T19:05:04.109Z,6.60
2022-11-29T19:07:32.979Z,6.40
2022-11-29T19:10:00.015Z,6.30
2022-11-29T19:12:26.790Z,6.30
2022-11-29T19:15:01.059Z,6.20
2022-11-29T19:17:30.838Z,6.10
2022-11-29T19:19:58.470Z,6.10
2022-11-29T19:22:25.464Z,6.10
2022-11-29T19:24:55.610Z,6.10
2022-11-29T19:27:26.028Z,6.20
2022-11-29T19:29:52.987Z,6.20
2022-11-29T19:32:19.993Z,6.30
2022-11-29T19:34:46.876Z,6.40
2022-11-29T19:37:13.754Z,6.40
2022-11-29T19:39:42.415Z,6.40
2022-11-29T19:42:09.507Z,6.50
2022-11-29T19:45:14.968Z,6.60
2022-11-29T19:47:26.490Z,6.50
2022-11-29T19:50:02.104Z,6.60
2022-11-29T19:52:29.434Z,7.40
2022-11-29T19:54:57.536Z,6.70
2022-11-29T19:57:24.416Z,6.60
2022-11-29T19:59:51.333Z,6.70
2022-11-29T20:02:18.264Z,7.20
2022-11-29T20:04:45.723Z,6.60
2022-11-29T20:07:12.668Z,6.40
2022-11-29T20:09:39.668Z,6.20
2022-11-29T20:12:06.537Z,6.20
2022-11-29T20:14:33.385Z,6.20
2022-11-29T20:17:00.204Z,6.30
2022-11-29T20:19:27.044Z,6.30
2022-11-29T20:21:53.999Z,6.30
2022-11-29T20:24:20.904Z,6.40
2022-11-29T20:26:49.024Z,6.40
2022-11-29T20:29:19.457Z,6.50
2022-11-29T20:31:50.535Z,6.60
2022-11-29T20:34:19.273Z,6.60
2022-11-29T20:36:51.531Z,6.50
2022-11-29T20:39:18.395Z,6.70
2022-11-29T20:42:04.739Z,6.60
2022-11-29T20:44:46.498Z,6.70
2022-11-29T20:47:33.613Z,6.70
2022-11-29T20:50:00.687Z,6.60
2022-11-29T20:52:27.534Z,6.60
2022-11-29T20:54:56.855Z,6.50
2022-11-29T20:57:23.769Z,6.50
2022-11-29T20:59:50.621Z,6.50
2022-11-29T21:02:17.590Z,6.60
2022-11-29T21:04:46.165Z,6.60
2022-11-29T21:07:13.481Z,6.60
2022-11-29T21:09:40.409Z,6.60
2022-11-29T21:12:07.564Z,6.60
2022-11-29T21:14:34.727Z,6.60
2022-11-29T21:17:01.883Z,6.80
2022-11-29T21:19:31.984Z,7.00
2022-11-29T21:21:58.789Z,7.20
2022-11-29T21:24:28.379Z,7.10
2022-11-29T21:26:55.388Z,7.00
2022-11-29T21:29:22.911Z,6.80
2022-11-29T21:31:51.017Z,6.70
2022-11-29T21:34:17.898Z,6.70
2022-11-29T21:36:45.203Z,6.70
2022-11-29T21:39:14.859Z,6.80
2022-11-29T21:41:42.215Z,6.80
2022-11-29T21:44:12.303Z,6.70
2022-11-29T21:46:39.182Z,6.60
2022-11-29T21:49:06.134Z,6.60
2022-11-29T21:51:33.139Z,6.60
2022-11-29T21:54:01.082Z,6.60
2022-11-29T21:56:28.068Z,6.60
2022-11-29T21:58:55.092Z,6.50
2022-11-29T22:01:22.496Z,6.60
2022-11-29T22:03:51.865Z,6.70
2022-11-29T22:06:20.333Z,6.60
2022-11-29T22:08:47.924Z,6.60
2022-11-29T22:11:15.839Z,6.70
2022-11-29T22:14:02.321Z,6.70
2022-11-29T22:16:29.626Z,6.80
2022-11-29T22:18:56.622Z,6.80
2022-11-29T22:21:23.777Z,6.80
2022-11-29T22:23:51.868Z,6.70
2022-11-29T22:26:18.759Z,6.70
2022-11-29T22:28:45.657Z,6.70
2022-11-29T22:31:13.513Z,6.70
2022-11-29T22:33:40.635Z,6.70
2022-11-29T22:36:08.712Z,6.70
2022-11-29T22:38:36.028Z,6.70
2022-11-29T22:41:03.897Z,6.70
2022-11-29T22:43:31.668Z,6.90
2022-11-29T22:46:18.916Z,6.80
2022-11-29T22:48:46.726Z,6.80
2022-11-29T22:51:15.048Z,6.70
2022-11-29T22:53:42.891Z,6.70
2022-11-29T22:56:10.637Z,6.70
2022-11-29T22:58:37.894Z,6.70
2022-11-29T23:01:12.588Z,6.80
2022-11-29T23:03:40.576Z,6.80
2022-11-29T23:06:11.597Z,6.70
2022-11-29T23:08:39.046Z,6.70
2022-11-29T23:11:06.648Z,6.70
2022-11-29T23:13:34.110Z,6.70
2022-11-29T23:16:01.389Z,6.70
2022-11-29T23:18:28.918Z,6.80
2022-11-29T23:21:06.750Z,6.80
2022-11-29T23:23:33.635Z,6.80
2022-11-29T23:26:00.754Z,6.70
2022-11-29T23:28:27.918Z,6.70
2022-11-29T23:30:54.679Z,6.70
2022-11-29T23:33:24.420Z,6.80
2022-11-29T23:35:51.576Z,6.70
2022-11-29T23:38:18.469Z,6.70
2022-11-29T23:40:45.397Z,6.70
2022-11-29T23:43:13.798Z,6.70
2022-11-29T23:45:41.232Z,6.60
2022-11-29T23:48:08.103Z,6.60
2022-11-29T23:50:35.085Z,6.60
2022-11-29T23:53:01.925Z,6.60
2022-11-29T23:55:28.736Z,6.70
2022-11-29T23:57:55.607Z,6.80
